Latest Weather Observations for Kingaroy

IDQ60901

Issued at 3:41 pm EST Wednesday 27 May 2015 (issued every 10 minutes, with the page automatically refreshed every 10 minutes)

About weather observations | Map of Brisbane area stations | Latest observations for Brisbane area | Other Formats
Station Details ID: 040922 Name: KINGAROY AIRPORT Lat: -26.57 Lon: 151.84 Height: 433.67 m
Data from the previous 72 hours. | See also: Recent months at Kingaroy
Date/Time
EST
Tmp

°C
App
Tmp
°C
Dew
Point
°C
Rel
Hum
%
Delta-T

°C
Wind Press
QNH
hPa
Press
MSL
hPa
Rain
since
9 am
mm
Dir
 
Spd
km/h
Gust
km/h
Spd
kts
Gust
kts
27/03:30pm 20.3 18.9 11.0 55 5.2 SSW 9 11 5 6 1022.3 1021.6 0.0
27/03:00pm 20.6 19.8 11.2 55 5.3 ESE 6 11 3 6 1022.3 1021.6 0.0
27/02:30pm 20.3 19.5 11.8 58 4.8 ENE 7 13 4 7 1022.5 1021.8 0.0
27/02:00pm 20.6 19.5 11.8 57 5.0 SSE 9 15 5 8 1022.5 1021.8 0.0
27/01:30pm 20.1 18.8 11.3 57 4.9 SE 9 13 5 7 1023.0 1022.4 0.0
27/01:00pm 20.2 19.1 11.9 59 4.7 SE 9 15 5 8 1023.1 1022.5 0.0
27/12:30pm 20.3 19.2 12.0 59 4.7 ENE 9 20 5 11 1023.7 1023.0 0.0
27/12:00pm 19.4 18.1 12.4 64 4.0 E 11 19 6 10 1024.4 1023.7 0.0
27/11:30am 19.1 17.8 12.4 65 3.8 E 11 19 6 10 1025.0 1024.4 0.0
27/11:00am 18.8 17.3 13.2 70 3.2 ESE 13 17 7 9 1025.5 1024.9 0.0
27/10:30am 17.6 17.1 13.7 78 2.2 SE 9 15 5 8 1026.1 1025.4 0.0
27/10:00am 16.3 15.1 12.8 80 2.0 S 11 15 6 8 1026.4 1025.7 0.0
27/09:30am 16.3 15.8 13.8 85 1.4 SE 9 13 5 7 1026.6 1026.0 0.0
27/09:00am 15.3 14.7 13.5 89 1.0 SE 9 13 5 7 1026.3 1025.6 0.2
27/08:30am 14.6 13.7 13.6 94 0.6 ESE 11 19 6 10 1025.4 1024.8 0.2
27/08:00am 13.7 13.7 13.5 99 0.1 SE 6 11 3 6 1025.9 1025.3 0.2
27/07:30am 13.3 14.3 13.1 99 0.1 CALM 0 0 0 0 1025.9 1025.3 0.2
27/07:00am 13.1 12.7 12.9 99 0.1 SE 7 11 4 6 1025.5 1024.9 0.2
27/06:30am 13.1 12.3 12.9 99 0.1 SSE 9 15 5 8 1025.1 1024.5 0.2
27/06:00am 12.9 12.0 12.7 99 0.1 SSE 9 13 5 7 1024.7 1024.1 0.2
27/05:30am 12.8 11.5 12.6 99 0.1 S 11 13 6 7 1024.4 1023.7 0.2
27/05:00am 10.9 10.8 10.7 99 0.1 SE 2 6 1 3 1024.3 1023.6 0.2
27/04:30am 10.0 10.0 9.9 99 0.1 CALM 0 0 0 0 1024.1 1023.4 0.2
27/04:00am 9.6 9.5 9.5 99 0.1 CALM 0 7 0 4 1024.1 1023.4 0.0
27/03:30am 9.5 8.6 9.4 99 0.1 SSE 4 6 2 3 1024.5 1023.8 0.0
27/03:00am 8.9 8.6 8.6 98 0.1 CALM 0 0 0 0 1024.7 1024.1 0.0
27/02:30am 8.3 7.8 7.7 96 0.3 CALM 0 0 0 0 1024.8 1024.2 0.0
27/02:00am 8.4 7.8 7.5 94 0.4 CALM 0 0 0 0 1025.1 1024.5 0.0
27/01:30am 9.8 9.6 9.2 96 0.3 CALM 0 0 0 0 1025.1 1024.5 0.0
27/01:00am 10.1 8.7 9.6 97 0.3 SSE 7 9 4 5 1025.2 1024.6 0.0
27/12:30am 10.1 9.9 9.2 94 0.5 CALM 0 0 0 0 1025.4 1024.8 0.0
27/12:00am 10.5 10.3 9.1 91 0.7 CALM 0 9 0 5 1025.6 1025.0 0.0
 
Date/Time
EST
Tmp

°C
App
Tmp
°C
Dew
Point
°C
Rel
Hum
%
Delta-T

°C
Wind Press
QNH
hPa
Press
MSL
hPa
Rain
since
9 am
mm
Dir
 
Spd
km/h
Gust
km/h
Spd
kts
Gust
kts
26/11:30pm 12.2 11.7 10.9 92 0.7 SE 4 7 2 4 1025.7 1025.1 0.0
26/11:00pm 13.1 13.6 11.7 91 0.8 CALM 0 0 0 0 1026.1 1025.4 0.0
26/10:30pm 13.1 12.8 11.3 89 1.0 SE 4 7 2 4 1026.3 1025.6 0.0
26/10:00pm 13.7 13.9 11.9 89 1.0 ESE 2 6 1 3 1026.3 1025.6 0.0
26/09:30pm 13.8 13.6 11.8 88 1.1 E 4 7 2 4 1026.2 1025.5 0.0
26/09:00pm 14.0 13.4 11.7 86 1.3 ESE 6 7 3 4 1026.3 1025.6 0.0
26/08:30pm 14.3 12.8 11.8 85 1.4 E 11 15 6 8 1026.2 1025.5 0.0
26/08:00pm 15.6 13.9 12.4 81 1.8 ESE 13 17 7 9 1026.4 1025.7 0.0
26/07:30pm 14.9 14.2 12.0 83 1.6 ESE 7 11 4 6 1026.3 1025.6 0.0
26/07:00pm 15.3 14.3 12.2 82 1.7 E 9 13 5 7 1026.3 1025.6 0.0
26/06:30pm 15.6 14.5 12.0 79 2.0 E 9 15 5 8 1025.9 1025.3 0.0
26/06:00pm 15.7 15.0 11.9 78 2.1 E 7 9 4 5 1025.8 1025.2 0.0
26/05:30pm 16.4 15.6 11.6 73 2.7 SE 7 9 4 5 1025.8 1025.2 0.0
26/05:00pm 16.9 16.1 11.2 69 3.1 SE 6 9 3 5 1025.4 1024.8 0.0
26/04:30pm 17.7 16.7 11.0 65 3.7 SE 7 9 4 5 1025.1 1024.5 0.0
26/04:00pm 18.6 17.7 11.2 62 4.1 SE 7 11 4 6 1025.1 1024.5 0.0
26/03:30pm 18.3 16.8 10.4 60 4.3 SE 9 13 5 7 1024.8 1024.2 0.0
26/03:00pm 18.5 16.8 9.8 57 4.7 SE 9 15 5 8 1025.0 1024.4 0.0
26/02:30pm 19.2 17.4 10.7 58 4.7 ESE 11 15 6 8 1025.0 1024.4 0.0
26/02:00pm 18.7 16.8 8.9 53 5.2 SSE 9 13 5 7 1025.2 1024.6 0.0
26/01:30pm 19.3 17.9 9.5 53 5.3 ESE 7 13 4 7 1025.7 1025.1 0.0
26/01:00pm 18.5 17.2 11.3 63 4.0 SE 9 13 5 7 1026.3 1025.6 0.0
26/12:30pm 18.4 17.0 11.0 62 4.1 ESE 9 15 5 8 1026.6 1026.0 0.0
26/12:00pm 18.4 16.3 11.0 62 4.1 ESE 13 19 7 10 1027.4 1026.8 0.0
26/11:30am 18.2 16.3 11.7 66 3.6 ESE 13 22 7 12 1028.1 1027.5 0.0
26/11:00am 17.4 16.0 12.3 72 2.9 ESE 11 17 6 9 1028.8 1028.2 0.0
26/10:30am 16.9 14.6 11.6 71 2.9 ESE 15 20 8 11 1029.0 1028.4 0.0
26/10:00am 16.5 13.9 11.9 74 2.5 ESE 17 26 9 14 1029.0 1028.4 0.0
26/09:30am 16.4 14.4 12.6 78 2.1 S 15 19 8 10 1029.2 1028.6 0.0
26/09:00am 14.9 13.2 12.6 86 1.3 S 13 17 7 9 1029.2 1028.6 0.0
26/08:30am 13.2 14.0 12.7 97 0.3 CALM 0 6 0 3 1029.0 1028.4 0.0
26/08:00am 10.1 9.7 9.9 99 0.1 SW 2 6 1 3 1029.0 1028.4 0.0
26/07:30am 7.6 7.0 7.3 98 0.1 CALM 0 0 0 0 1028.9 1028.3 0.0
26/07:00am 6.0 5.0 5.7 98 0.1 CALM 0 0 0 0 1029.1 1028.5 0.0
26/06:30am 6.1 4.8 5.8 98 0.1 SSE 2 6 1 3 1029.0 1028.4 0.0
26/06:00am 6.7 5.9 6.6 99 0.0 CALM 0 6 0 3 1029.1 1028.5 0.0
26/05:30am 6.4 5.1 6.1 98 0.1 ENE 2 6 1 3 1028.7 1028.1 0.0
26/05:00am 6.5 5.2 6.2 98 0.1 NNE 2 7 1 4 1028.7 1028.1 0.0
26/04:30am 6.8 5.6 6.5 98 0.1 NNE 2 7 1 4 1028.2 1027.6 0.0
26/04:00am 7.5 6.5 7.2 98 0.1 SSW 2 9 1 5 1028.3 1027.7 0.0
26/03:30am 7.6 6.2 7.2 97 0.2 SE 4 7 2 4 1028.7 1028.1 0.0
26/03:00am 8.3 7.5 8.0 98 0.1 E 2 6 1 3 1028.4 1027.8 0.0
26/02:30am 8.2 7.6 7.6 96 0.3 CALM 0 0 0 0 1028.6 1028.0 0.0
26/02:00am 8.5 7.6 7.7 95 0.4 WNW 2 6 1 3 1028.4 1027.8 0.0
26/01:30am 10.2 8.1 9.7 97 0.3 S 11 13 6 7 1028.6 1028.0 0.0
26/01:00am 9.8 8.5 9.3 97 0.3 SSW 6 11 3 6 1028.9 1028.3 0.0
26/12:30am 9.1 8.7 8.2 94 0.4 CALM 0 0 0 0 1029.0 1028.4 0.0
26/12:00am 9.4 8.6 8.3 93 0.5 W 2 6 1 3 1029.2 1028.6 0.0
 
Date/Time
EST
Tmp

°C
App
Tmp
°C
Dew
Point
°C
Rel
Hum
%
Delta-T

°C
Wind Press
QNH
hPa
Press
MSL
hPa
Rain
since
9 am
mm
Dir
 
Spd
km/h
Gust
km/h
Spd
kts
Gust
kts
25/11:30pm 10.1 8.5 8.9 92 0.6 S 7 9 4 5 1029.2 1028.6 0.0
25/11:00pm 11.0 9.4 10.1 94 0.5 SSE 9 13 5 7 1029.5 1028.9 0.0
25/10:30pm 11.0 9.3 9.8 92 0.6 S 9 13 5 7 1030.0 1029.4 0.0
25/10:00pm 10.9 9.1 9.5 91 0.7 S 9 11 5 6 1029.7 1029.1 0.0
25/09:30pm 11.5 10.2 9.8 89 0.9 SSE 7 11 4 6 1029.8 1029.2 0.0
25/09:00pm 10.7 9.2 9.3 91 0.7 SSE 7 9 4 5 1029.8 1029.2 0.0
25/08:30pm 10.5 10.1 8.3 86 1.1 CALM 0 0 0 0 1029.9 1029.3 0.0
25/08:00pm 11.8 10.4 8.8 82 1.5 SSE 6 7 3 4 1029.8 1029.2 0.0
25/07:30pm 13.0 11.6 9.4 79 1.9 ESE 7 9 4 5 1029.4 1028.8 0.0
25/07:00pm 13.3 11.1 9.4 77 2.0 ESE 11 13 6 7 1029.1 1028.5 0.0
25/06:30pm 13.7 11.8 9.2 74 2.3 E 9 11 5 6 1028.7 1028.1 0.0
25/06:00pm 13.9 11.7 9.3 74 2.4 ESE 11 13 6 7 1028.6 1028.0 0.0
25/05:30pm 14.9 13.1 9.5 70 2.8 E 9 13 5 7 1028.2 1027.6 0.0
25/05:00pm 16.8 14.8 10.2 65 3.5 ESE 11 15 6 8 1028.2 1027.6 0.0
25/04:30pm 18.6 16.7 10.4 59 4.5 ESE 11 15 6 8 1028.3 1027.7 0.0
25/04:00pm 19.2 17.0 10.7 58 4.7 ESE 13 20 7 11 1028.3 1027.7 0.0
25/03:30pm 20.0 17.9 11.2 57 4.9 ESE 13 20 7 11 1027.9 1027.3 0.0
25/03:00pm 20.4 18.7 11.1 55 5.2 E 11 20 6 11 1028.0 1027.4 0.0
25/02:30pm 19.9 17.5 11.4 58 4.8 SE 15 20 8 11 1028.0 1027.4 0.0
25/02:00pm 19.3 16.1 10.0 55 5.0 SE 17 35 9 19 1028.1 1027.5 0.0
25/01:30pm 20.3 18.3 11.5 57 5.0 ESE 13 22 7 12 1028.1 1027.5 0.0
25/01:00pm 18.9 15.9 10.5 58 4.6 ESE 17 22 9 12 1028.6 1028.0 0.0
25/12:30pm 20.1 17.8 11.6 58 4.8 SE 15 20 8 11 1029.1 1028.5 0.0
25/12:00pm 19.5 17.1 11.5 60 4.5 SE 15 22 8 12 1029.8 1029.2 0.0
25/11:30am 19.5 17.3 12.0 62 4.3 ESE 15 24 8 13 1030.3 1029.7 0.0
25/11:00am 18.6 15.4 11.2 62 4.1 E 19 28 10 15 1030.7 1030.2 0.0
25/10:30am 17.2 14.7 11.2 68 3.3 SE 15 24 8 13 1031.6 1031.0 0.0
25/10:00am 16.2 12.7 10.9 71 2.9 ESE 20 33 11 18 1031.5 1030.9 0.0
25/09:30am 16.0 13.7 11.6 75 2.4 ESE 15 24 8 13 1031.6 1031.0 0.0
25/09:00am 15.0 13.0 11.6 80 1.9 SSE 13 19 7 10 1031.4 1030.8 0.0
25/08:30am 14.0 12.3 11.2 83 1.5 SSE 11 15 6 8 1030.7 1030.2 0.0
25/08:00am 12.6 11.3 11.2 91 0.7 S 9 15 5 8 1030.7 1030.2 0.0
25/07:30am 11.6 10.5 10.5 93 0.6 S 7 11 4 6 1030.6 1030.1 0.0
25/07:00am 11.0 9.8 10.2 95 0.4 SE 7 13 4 7 1030.1 1029.5 0.0
25/06:30am 8.9 7.2 8.5 97 0.2 SW 7 9 4 5 1030.0 1029.4 0.0
25/06:00am 8.9 6.8 8.1 95 0.4 SSW 9 13 5 7 1029.8 1029.2 0.0
25/05:30am 9.3 7.6 8.2 93 0.5 SSW 7 13 4 7 1029.7 1029.1 0.0
25/05:00am 8.6 6.9 8.2 97 0.2 S 7 9 4 5 1029.4 1028.8 0.0
25/04:30am 8.0 6.2 7.2 95 0.4 SW 6 9 3 5 1029.4 1028.8 0.0
25/04:00am 9.5 9.3 9.0 97 0.2 CALM 0 0 0 0 1029.6 1029.0 0.0
25/03:30am 8.8 8.3 8.0 95 0.4 CALM 0 0 0 0 1029.7 1029.1 0.0
25/03:00am 9.1 7.6 8.3 95 0.4 ESE 6 9 3 5 1029.7 1029.1 0.0
25/02:30am 9.5 7.9 8.9 96 0.3 SE 7 9 4 5 1030.0 1029.4 0.0
25/02:00am 9.7 8.2 8.5 92 0.6 SW 6 7 3 4 1030.1 1029.5 0.0
25/01:30am 10.2 8.2 8.6 90 0.8 S 9 11 5 6 1029.9 1029.3 0.0
25/01:00am 11.9 9.9 10.0 88 1.0 SE 11 19 6 10 1029.6 1029.0 0.0
25/12:30am 12.1 10.2 10.5 90 0.8 SE 11 17 6 9 1029.6 1029.0 0.0
25/12:00am 11.9 9.9 10.3 90 0.8 SE 11 15 6 8 1029.5 1028.9 0.0
 
Date/Time
EST
Tmp

°C
App
Tmp
°C
Dew
Point
°C
Rel
Hum
%
Delta-T

°C
Wind Press
QNH
hPa
Press
MSL
hPa
Rain
since
9 am
mm
Dir
 
Spd
km/h
Gust
km/h
Spd
kts
Gust
kts
24/11:30pm 12.0 10.5 10.6 91 0.7 SE 9 15 5 8 1029.9 1029.3 0.0
24/11:00pm 11.3 9.2 9.7 90 0.8 ESE 11 15 6 8 1029.8 1029.2 0.0
24/10:30pm 12.2 10.6 10.3 88 1.0 E 9 13 5 7 1030.0 1029.4 0.0
24/10:00pm 13.2 11.4 10.9 86 1.2 ESE 11 17 6 9 1030.1 1029.5 0.0
24/09:30pm 12.8 11.4 10.9 88 1.0 ESE 9 17 5 9 1030.4 1029.8 0.0
24/09:00pm 11.1 9.4 8.3 83 1.4 E 7 11 4 6 1030.3 1029.7 0.0
24/08:30pm 13.4 11.6 9.5 77 2.0 ESE 9 15 5 8 1029.9 1029.3 0.0
24/08:00pm 14.9 12.6 10.5 75 2.3 ESE 13 20 7 11 1029.5 1028.9 0.0
24/07:30pm 14.8 12.7 11.0 78 2.1 ESE 13 19 7 10 1029.4 1028.8 0.0
24/07:00pm 13.1 11.3 9.5 79 1.9 ESE 9 15 5 8 1029.4 1028.8 0.0
24/06:30pm 14.3 12.8 9.3 72 2.6 ESE 7 13 4 7 1029.2 1028.6 0.0
24/06:00pm 15.8 14.7 10.6 71 2.8 ESE 7 11 4 6 1029.0 1028.4 0.0
24/05:30pm 16.0 13.9 9.9 67 3.3 ESE 11 15 6 8 1028.7 1028.1 0.0
24/05:00pm 17.3 14.9 10.0 62 3.9 ESE 13 17 7 9 1028.6 1028.0 0.0
24/04:30pm 18.4 16.3 9.7 57 4.7 ESE 11 17 6 9 1028.2 1027.6 0.0
24/04:00pm 18.7 16.2 9.8 56 4.8 ESE 13 20 7 11 1027.7 1027.1 0.0

Latest Capital City Observations: Canberra | Sydney | Melbourne | Brisbane | Adelaide | Perth | Hobart | Darwin

Other Formats:

Comma delimited format used in spreadsheet applications
http://www.bom.gov.au/fwo/IDQ60901/IDQ60901.94549.axf

JavaScript Object Notation format (JSON) in row-major order
http://www.bom.gov.au/fwo/IDQ60901/IDQ60901.94549.json